Time;durP1;ratioP1;P1;durP2;ratioP2;P2;SDS_P1;SDS_P2;PMS_P1;PMS_P2;Temp;Humidity;BMP_temperature;BMP_pressure;BME280_temperature;BME280_humidity;BME280_pressure;Samples;Min_cycle;Max_cycle;Signal;HPM_P1;HPM_P2
2021/01/25 00:02:22;;;;;;;;;;;2.50;95.50;;;;;;4407357;32;26836;-73
2021/01/25 00:04:49;;;;;;;;;;;2.50;95.50;;;;;;4407574;32;27167;-74
2021/01/25 00:07:16;;;;;;;;;;;2.50;95.50;;;;;;4407319;32;32938;-73
2021/01/25 00:09:42;;;;;;;;;;;2.50;95.50;;;;;;4407371;32;38197;-73
2021/01/25 00:12:09;;;;;;;;;;;2.40;95.50;;;;;;4405868;32;38531;-73
2021/01/25 00:14:35;;;;;;;;;;;2.50;95.50;;;;;;4407227;32;35616;-73
2021/01/25 00:17:04;;;;;;;;;;;2.40;95.50;;;;;;4407534;32;27175;-73
2021/01/25 00:19:31;;;;;;;;;;;2.50;95.50;;;;;;4407523;32;30002;-74
2021/01/25 00:21:58;;;;;;;;;;;2.40;95.50;;;;;;4407951;32;20007;-73
2021/01/25 00:24:24;;;;;;;;;;;2.40;95.50;;;;;;4408032;32;20008;-73
2021/01/25 00:26:51;;;;;;;;;;;2.50;95.50;;;;;;4407440;32;26325;-73
2021/01/25 00:29:20;;;;;;;;;;;2.40;95.50;;;;;;4408065;32;20004;-73
2021/01/25 00:31:50;;;;;;;;;;;2.40;95.50;;;;;;4406822;32;37701;-73
2021/01/25 00:34:17;;;;;;;;;;;2.40;95.60;;;;;;4405538;32;41570;-72
2021/01/25 00:36:46;;;;;;;;;;;2.50;95.50;;;;;;4406748;32;37072;-73
2021/01/25 00:39:15;;;;;;;;;;;2.40;95.60;;;;;;4406630;32;35925;-73
2021/01/25 00:41:42;;;;;;;;;;;2.40;95.60;;;;;;4405907;32;31820;-73
2021/01/25 00:44:09;;;;;;;;;;;2.40;95.60;;;;;;4405887;32;26505;-73
2021/01/25 00:46:35;;;;;;;;;;;2.40;95.60;;;;;;4406556;32;42518;-73
2021/01/25 00:49:05;;;;;;;;;;;2.40;95.60;;;;;;4406470;32;36972;-73
2021/01/25 00:51:31;;;;;;;;;;;2.40;95.60;;;;;;4406925;32;30964;-73
2021/01/25 00:54:01;;;;;;;;;;;2.40;95.60;;;;;;4406925;32;35542;-73
2021/01/25 00:56:27;;;;;;;;;;;2.40;95.60;;;;;;4406805;32;29424;-73
2021/01/25 00:58:54;;;;;;;;;;;2.40;96.00;;;;;;4392868;32;29942;-73
2021/01/25 01:01:20;;;;;;;;;;;2.40;95.60;;;;;;4406639;32;30032;-73
2021/01/25 01:03:47;;;;;;;;;;;2.40;95.60;;;;;;4406899;32;32718;-73
2021/01/25 01:06:14;;;;;;;;;;;2.40;95.60;;;;;;4393667;32;20000;-73
2021/01/25 01:08:40;;;;;;;;;;;2.40;95.60;;;;;;4406492;32;44151;-73
2021/01/25 01:11:07;;;;;;;;;;;2.40;95.60;;;;;;4404867;32;40555;-73
2021/01/25 01:13:34;;;;;;;;;;;2.40;95.60;;;;;;4407010;32;23211;-73
2021/01/25 01:16:00;;;;;;;;;;;2.40;95.60;;;;;;4405980;32;39642;-73
2021/01/25 01:18:27;;;;;;;;;;;2.40;95.60;;;;;;4392862;32;34199;-73
2021/01/25 01:20:54;;;;;;;;;;;2.40;95.60;;;;;;4405846;32;20012;-73
2021/01/25 01:23:21;;;;;;;;;;;2.40;95.60;;;;;;4405415;32;30497;-73
2021/01/25 01:25:47;;;;;;;;;;;2.40;95.60;;;;;;4405208;32;42446;-73
2021/01/25 01:28:14;;;;;;;;;;;2.40;95.60;;;;;;4407259;32;20012;-73
2021/01/25 01:30:40;;;;;;;;;;;2.40;95.60;;;;;;4406554;32;27176;-73
2021/01/25 01:33:07;;;;;;;;;;;2.40;95.60;;;;;;4406163;32;23002;-73
2021/01/25 01:35:34;;;;;;;;;;;2.40;95.60;;;;;;4404592;32;39169;-72
2021/01/25 01:38:05;;;;;;;;;;;2.40;95.60;;;;;;4404895;32;43398;-73
2021/01/25 01:40:31;;;;;;;;;;;2.40;95.50;;;;;;4406547;32;29078;-73
2021/01/25 01:42:58;;;;;;;;;;;2.40;95.60;;;;;;4405687;32;36073;-73
2021/01/25 01:45:27;;;;;;;;;;;2.40;95.60;;;;;;4404602;32;37335;-73
2021/01/25 01:47:55;;;;;;;;;;;2.40;95.60;;;;;;4406256;32;37136;-73
2021/01/25 01:50:22;;;;;;;;;;;2.40;95.60;;;;;;4405409;32;28490;-73
2021/01/25 01:52:52;;;;;;;;;;;2.40;95.60;;;;;;4407106;32;20004;-73
2021/01/25 01:55:19;;;;;;;;;;;2.40;95.70;;;;;;4404652;32;42542;-73
2021/01/25 01:57:47;;;;;;;;;;;2.40;95.60;;;;;;4405547;32;42642;-73
2021/01/25 02:00:14;;;;;;;;;;;2.40;95.60;;;;;;4405554;32;34288;-73
2021/01/25 02:02:40;;;;;;;;;;;2.40;95.70;;;;;;4405486;32;38593;-73
2021/01/25 02:05:07;;;;;;;;;;;2.40;95.60;;;;;;4404965;32;21328;-73
2021/01/25 02:07:34;;;;;;;;;;;2.40;95.60;;;;;;4404685;32;41494;-73
2021/01/25 02:10:03;;;;;;;;;;;2.40;95.60;;;;;;4406335;32;20020;-73
2021/01/25 02:12:32;;;;;;;;;;;2.40;95.70;;;;;;4405258;32;41247;-73
2021/01/25 02:15:00;;;;;;;;;;;2.40;95.60;;;;;;4404829;32;32243;-73
2021/01/25 02:17:27;;;;;;;;;;;2.40;95.60;;;;;;4404255;32;41872;-73
2021/01/25 02:19:53;;;;;;;;;;;2.50;95.70;;;;;;4405591;32;27363;-73
2021/01/25 02:22:35;;;;;;;;;;;2.40;95.70;;;;;;4392913;32;20095;-73
2021/01/25 02:25:14;;;;;;;;;;;2.40;95.70;;;;;;4403950;32;42589;-73
2021/01/25 02:27:44;;;;;;;;;;;2.40;95.60;;;;;;4404759;32;19996;-73
2021/01/25 02:30:12;;;;;;;;;;;2.40;95.70;;;;;;4406647;32;20384;-73
2021/01/25 02:32:39;;;;;;;;;;;2.40;95.60;;;;;;4405915;32;20021;-73
2021/01/25 02:35:09;;;;;;;;;;;2.40;95.70;;;;;;4405266;32;20020;-73
2021/01/25 02:37:39;;;;;;;;;;;2.40;95.70;;;;;;4405307;32;19992;-74
2021/01/25 02:40:10;;;;;;;;;;;2.50;95.70;;;;;;4405715;32;20011;-73
2021/01/25 02:42:37;;;;;;;;;;;2.40;95.70;;;;;;4406562;32;20059;-73
2021/01/25 02:45:08;;;;;;;;;;;2.50;95.80;;;;;;4406574;32;20010;-73
2021/01/25 02:47:35;;;;;;;;;;;2.50;95.70;;;;;;4391751;32;35381;-73
2021/01/25 02:50:06;;;;;;;;;;;2.50;95.70;;;;;;4392380;32;20010;-73
2021/01/25 02:52:33;;;;;;;;;;;2.40;95.70;;;;;;4405276;32;20399;-73
2021/01/25 02:55:01;;;;;;;;;;;2.50;95.70;;;;;;4404044;32;27811;-73
2021/01/25 02:57:29;;;;;;;;;;;2.50;96.00;;;;;;4404706;32;25865;-73
2021/01/25 02:59:56;;;;;;;;;;;2.50;95.70;;;;;;4404910;32;42898;-73
2021/01/25 03:02:23;;;;;;;;;;;2.50;95.70;;;;;;4391369;32;35301;-73
2021/01/25 03:04:50;;;;;;;;;;;2.50;95.70;;;;;;4405264;32;24349;-73
2021/01/25 03:07:16;;;;;;;;;;;2.50;95.70;;;;;;4405031;32;34061;-73
2021/01/25 03:09:46;;;;;;;;;;;2.50;95.70;;;;;;4405225;32;39511;-73
2021/01/25 03:12:13;;;;;;;;;;;2.50;95.70;;;;;;4405211;32;19999;-73
2021/01/25 03:14:45;;;;;;;;;;;2.50;95.70;;;;;;4404816;32;34832;-73
2021/01/25 03:17:15;;;;;;;;;;;2.50;95.70;;;;;;4404866;32;20016;-74
2021/01/25 03:19:42;;;;;;;;;;;2.50;95.70;;;;;;4405855;32;20011;-73
2021/01/25 03:22:11;;;;;;;;;;;2.50;95.80;;;;;;4404666;32;20016;-73
2021/01/25 03:24:40;;;;;;;;;;;2.50;95.70;;;;;;4405931;32;20019;-73
2021/01/25 03:27:06;;;;;;;;;;;2.50;96.00;;;;;;4407894;32;33776;-73
2021/01/25 03:29:33;;;;;;;;;;;2.50;95.70;;;;;;4406854;32;38860;-73
2021/01/25 03:32:00;;;;;;;;;;;2.50;95.70;;;;;;4406806;32;36064;-73
2021/01/25 03:34:27;;;;;;;;;;;2.50;95.70;;;;;;4406561;32;39155;-73
2021/01/25 03:36:53;;;;;;;;;;;2.50;95.70;;;;;;4407556;32;35683;-74
2021/01/25 03:39:20;;;;;;;;;;;2.50;95.70;;;;;;4407451;32;37046;-74
2021/01/25 03:41:47;;;;;;;;;;;2.50;95.70;;;;;;4406482;32;33735;-74
2021/01/25 03:44:14;;;;;;;;;;;2.50;95.80;;;;;;4408672;32;20016;-74
2021/01/25 03:46:45;;;;;;;;;;;2.50;95.80;;;;;;4408290;32;22594;-73
2021/01/25 03:49:14;;;;;;;;;;;2.50;95.80;;;;;;4395198;32;19995;-73
2021/01/25 03:51:43;;;;;;;;;;;2.50;95.80;;;;;;4406106;32;39162;-73
2021/01/25 03:54:13;;;;;;;;;;;2.50;95.70;;;;;;4407577;32;20070;-73
2021/01/25 03:56:40;;;;;;;;;;;2.50;95.70;;;;;;4406375;32;43622;-73
2021/01/25 03:59:07;;;;;;;;;;;2.50;95.70;;;;;;4406524;32;38533;-74
2021/01/25 04:01:33;;;;;;;;;;;2.50;95.80;;;;;;4405972;32;39791;-74
2021/01/25 04:04:03;;;;;;;;;;;2.50;95.70;;;;;;4408951;32;20018;-74
2021/01/25 04:06:30;;;;;;;;;;;2.50;95.70;;;;;;4407689;32;28809;-73
2021/01/25 04:08:57;;;;;;;;;;;2.50;95.70;;;;;;4407667;32;28522;-74
2021/01/25 04:11:24;;;;;;;;;;;2.50;95.70;;;;;;4393384;32;44818;-74
2021/01/25 04:13:53;;;;;;;;;;;2.50;95.80;;;;;;4407740;32;24415;-74
2021/01/25 04:16:19;;;;;;;;;;;2.50;95.80;;;;;;4407528;32;34323;-74
2021/01/25 04:18:46;;;;;;;;;;;2.50;95.80;;;;;;4407339;32;20031;-73
2021/01/25 04:21:13;;;;;;;;;;;2.50;95.80;;;;;;4408626;32;20021;-73
2021/01/25 04:23:45;;;;;;;;;;;2.50;95.70;;;;;;4406830;32;20056;-73
2021/01/25 04:26:12;;;;;;;;;;;2.50;95.70;;;;;;4407929;32;20393;-74
2021/01/25 04:28:38;;;;;;;;;;;2.50;95.70;;;;;;4406495;32;27633;-74
2021/01/25 04:31:07;;;;;;;;;;;2.50;95.70;;;;;;4407607;32;20438;-73
2021/01/25 04:33:34;;;;;;;;;;;2.50;95.80;;;;;;4407197;32;34528;-73
2021/01/25 04:36:01;;;;;;;;;;;2.50;95.80;;;;;;4407028;32;32284;-73
2021/01/25 04:38:28;;;;;;;;;;;2.50;95.70;;;;;;4406435;32;27631;-74
2021/01/25 04:40:54;;;;;;;;;;;2.50;95.80;;;;;;4406958;32;40706;-73
2021/01/25 04:43:21;;;;;;;;;;;2.50;95.80;;;;;;4407218;32;32678;-73
2021/01/25 04:45:48;;;;;;;;;;;2.50;95.80;;;;;;4407033;32;37177;-73
2021/01/25 04:48:15;;;;;;;;;;;2.50;95.80;;;;;;4406943;32;38932;-73
2021/01/25 04:50:42;;;;;;;;;;;2.50;95.80;;;;;;4405629;32;41420;-73
2021/01/25 04:53:10;;;;;;;;;;;2.50;95.90;;;;;;4405696;32;32407;-73
2021/01/25 04:55:36;;;;;;;;;;;2.50;95.90;;;;;;4407335;32;20417;-73
2021/01/25 04:58:03;;;;;;;;;;;2.50;95.80;;;;;;4407040;32;36990;-73
2021/01/25 05:00:30;;;;;;;;;;;2.50;95.80;;;;;;4406762;32;38865;-73
2021/01/25 05:02:56;;;;;;;;;;;2.50;95.80;;;;;;4406610;32;29873;-73
2021/01/25 05:05:24;;;;;;;;;;;2.50;95.90;;;;;;4406692;32;40051;-73
2021/01/25 05:07:50;;;;;;;;;;;2.50;95.90;;;;;;4406095;32;39592;-74
2021/01/25 05:10:17;;;;;;;;;;;2.50;95.90;;;;;;4405976;32;42802;-74
2021/01/25 05:12:44;;;;;;;;;;;2.50;95.90;;;;;;4404980;32;36701;-73
2021/01/25 05:15:22;;;;;;;;;;;2.50;95.80;;;;;;4393494;32;20055;-74
2021/01/25 05:17:49;;;;;;;;;;;2.50;95.80;;;;;;4406493;32;20022;-74
2021/01/25 05:20:16;;;;;;;;;;;2.50;95.90;;;;;;4407610;32;20074;-73
2021/01/25 05:22:42;;;;;;;;;;;2.50;95.90;;;;;;4407514;32;20063;-74
2021/01/25 05:25:10;;;;;;;;;;;2.50;95.80;;;;;;4407088;32;20042;-74
2021/01/25 05:27:43;;;;;;;;;;;2.50;95.80;;;;;;4405955;32;20016;-74
2021/01/25 05:30:16;;;;;;;;;;;2.50;95.90;;;;;;4405973;32;20020;-73
2021/01/25 05:33:01;;;;;;;;;;;2.50;95.80;;;;;;4406325;32;20008;-74
2021/01/25 05:35:29;;;;;;;;;;;2.50;95.80;;;;;;4405683;32;20011;-73
2021/01/25 05:38:06;;;;;;;;;;;2.50;95.80;;;;;;4406661;32;20017;-74
2021/01/25 05:40:34;;;;;;;;;;;2.50;95.80;;;;;;4405729;32;20007;-73
2021/01/25 05:43:10;;;;;;;;;;;2.50;95.80;;;;;;4405181;32;36971;-74
2021/01/25 05:45:36;;;;;;;;;;;2.50;95.90;;;;;;4406102;32;20361;-74
2021/01/25 05:48:03;;;;;;;;;;;2.50;95.90;;;;;;4403949;32;38417;-74
2021/01/25 05:50:37;;;;;;;;;;;2.50;95.90;;;;;;4406162;32;39027;-73
2021/01/25 05:53:05;;;;;;;;;;;2.50;95.90;;;;;;4404411;32;44100;-74
2021/01/25 05:55:32;;;;;;;;;;;2.50;95.90;;;;;;4406137;32;28193;-74
2021/01/25 05:57:59;;;;;;;;;;;2.50;96.00;;;;;;4405836;32;41330;-73
2021/01/25 06:00:26;;;;;;;;;;;2.50;95.90;;;;;;4406205;32;26018;-74
2021/01/25 06:02:53;;;;;;;;;;;2.50;95.90;;;;;;4405773;32;34488;-74
2021/01/25 06:05:33;;;;;;;;;;;2.50;95.90;;;;;;4404360;32;40351;-73
2021/01/25 06:08:07;;;;;;;;;;;2.50;95.90;;;;;;4404845;32;32035;-74
2021/01/25 06:10:44;;;;;;;;;;;2.50;95.90;;;;;;4406534;32;21795;-74
2021/01/25 06:13:14;;;;;;;;;;;2.50;95.90;;;;;;4404831;32;35060;-73
2021/01/25 06:15:45;;;;;;;;;;;2.50;95.90;;;;;;4405300;32;36638;-73
2021/01/25 06:18:13;;;;;;;;;;;2.50;95.90;;;;;;4405990;32;20112;-73
2021/01/25 06:20:40;;;;;;;;;;;2.50;95.80;;;;;;4404057;32;39783;-74
2021/01/25 06:23:07;;;;;;;;;;;2.50;95.80;;;;;;4404878;32;19996;-74
2021/01/25 06:25:35;;;;;;;;;;;2.50;95.80;;;;;;4404665;32;40556;-74
2021/01/25 06:28:02;;;;;;;;;;;2.50;95.80;;;;;;4404342;32;39347;-74
2021/01/25 06:30:31;;;;;;;;;;;2.50;95.80;;;;;;4405407;32;33788;-74
2021/01/25 06:32:59;;;;;;;;;;;2.50;95.80;;;;;;4404602;32;26165;-73
2021/01/25 06:35:28;;;;;;;;;;;2.50;96.10;;;;;;4404821;32;23942;-74
2021/01/25 06:37:57;;;;;;;;;;;2.50;95.80;;;;;;4405403;32;20434;-74
2021/01/25 06:40:25;;;;;;;;;;;2.50;95.80;;;;;;4405078;32;35909;-73
2021/01/25 06:42:53;;;;;;;;;;;2.50;95.80;;;;;;4405087;32;38794;-74
2021/01/25 06:45:21;;;;;;;;;;;2.50;95.80;;;;;;4406112;32;20034;-74
2021/01/25 06:47:49;;;;;;;;;;;2.50;95.80;;;;;;4404969;32;20051;-73
2021/01/25 06:50:20;;;;;;;;;;;2.50;95.80;;;;;;4393168;32;20010;-74
2021/01/25 06:52:50;;;;;;;;;;;2.50;95.80;;;;;;4404782;32;20446;-74
2021/01/25 06:55:17;;;;;;;;;;;2.50;95.70;;;;;;4405418;32;33634;-73
2021/01/25 06:57:46;;;;;;;;;;;2.50;95.70;;;;;;4403999;32;31634;-74
2021/01/25 07:00:14;;;;;;;;;;;2.50;95.70;;;;;;4406902;32;20000;-74
2021/01/25 07:02:54;;;;;;;;;;;2.50;95.70;;;;;;4408231;32;30208;-73
2021/01/25 07:05:22;;;;;;;;;;;2.50;95.70;;;;;;4408728;32;20053;-74
2021/01/25 07:07:49;;;;;;;;;;;2.50;95.70;;;;;;4409155;32;20015;-74
2021/01/25 07:10:18;;;;;;;;;;;2.50;95.70;;;;;;4409321;32;20071;-74
2021/01/25 07:12:53;;;;;;;;;;;2.50;95.70;;;;;;4408394;32;20060;-73
2021/01/25 07:15:20;;;;;;;;;;;2.50;95.70;;;;;;4409519;32;20348;-74
2021/01/25 07:17:55;;;;;;;;;;;2.40;95.70;;;;;;4409396;32;20055;-74
2021/01/25 07:20:23;;;;;;;;;;;2.40;95.70;;;;;;4408316;32;20351;-74
2021/01/25 07:22:50;;;;;;;;;;;2.40;95.70;;;;;;4408859;32;20011;-74
2021/01/25 07:25:17;;;;;;;;;;;2.40;95.70;;;;;;4409325;32;20019;-73
2021/01/25 07:27:46;;;;;;;;;;;2.40;95.70;;;;;;4409253;32;20000;-74
2021/01/25 07:30:13;;;;;;;;;;;2.40;95.80;;;;;;4409089;32;20063;-74
2021/01/25 07:32:39;;;;;;;;;;;2.40;95.80;;;;;;4407568;32;20000;-74
2021/01/25 07:35:08;;;;;;;;;;;2.40;95.80;;;;;;4408623;32;20071;-74
2021/01/25 07:37:36;;;;;;;;;;;2.40;95.90;;;;;;4409041;32;20067;-74
2021/01/25 07:40:03;;;;;;;;;;;2.40;95.90;;;;;;4408532;32;20008;-74
2021/01/25 07:42:30;;;;;;;;;;;2.40;95.80;;;;;;4407363;32;20051;-74
2021/01/25 07:44:57;;;;;;;;;;;2.40;95.90;;;;;;4407357;32;20012;-74
2021/01/25 07:47:24;;;;;;;;;;;2.40;95.80;;;;;;4408570;32;20091;-74
2021/01/25 07:49:54;;;;;;;;;;;2.40;95.80;;;;;;4394890;32;20118;-74
2021/01/25 07:52:23;;;;;;;;;;;2.40;95.80;;;;;;4408999;32;20012;-74
2021/01/25 07:54:55;;;;;;;;;;;2.40;95.80;;;;;;4407252;32;20018;-74
2021/01/25 07:57:27;;;;;;;;;;;2.40;95.80;;;;;;4408826;32;20055;-74
2021/01/25 08:00:01;;;;;;;;;;;2.40;95.90;;;;;;4407721;32;20020;-74
2021/01/25 08:02:36;;;;;;;;;;;2.40;95.90;;;;;;4408285;32;20067;-74
2021/01/25 08:05:06;;;;;;;;;;;2.40;95.80;;;;;;4408229;32;20047;-74
2021/01/25 08:07:33;;;;;;;;;;;2.40;95.80;;;;;;4408677;32;20000;-74
2021/01/25 08:09:59;;;;;;;;;;;2.40;95.80;;;;;;4407929;32;20021;-74
2021/01/25 08:12:26;;;;;;;;;;;2.40;95.80;;;;;;4408236;32;20372;-74
2021/01/25 08:14:59;;;;;;;;;;;2.40;95.80;;;;;;4394697;32;19999;-73
2021/01/25 08:17:30;;;;;;;;;;;2.40;95.80;;;;;;4408446;32;20022;-73
2021/01/25 08:20:04;;;;;;;;;;;2.40;95.80;;;;;;4394840;32;20401;-73
2021/01/25 08:22:39;;;;;;;;;;;2.40;95.90;;;;;;4394585;32;20037;-74
2021/01/25 08:25:16;;;;;;;;;;;2.40;95.90;;;;;;4394772;32;20439;-74
2021/01/25 08:27:54;;;;;;;;;;;2.40;95.90;;;;;;4394637;32;20006;-73
2021/01/25 08:30:24;;;;;;;;;;;2.40;95.90;;;;;;4408651;32;20071;-73
2021/01/25 08:33:01;;;;;;;;;;;2.40;96.00;;;;;;4406361;32;20004;-74
2021/01/25 08:35:41;;;;;;;;;;;2.40;96.00;;;;;;4407376;32;20051;-74
2021/01/25 08:38:28;;;;;;;;;;;2.40;96.00;;;;;;4407252;32;20003;-73
2021/01/25 08:41:01;;;;;;;;;;;2.40;96.00;;;;;;4407352;32;20460;-73
2021/01/25 08:43:32;;;;;;;;;;;2.40;96.00;;;;;;4393930;32;19997;-74
2021/01/25 08:46:16;;;;;;;;;;;2.40;96.00;;;;;;4407672;32;20025;-74
2021/01/25 08:48:43;;;;;;;;;;;2.40;96.00;;;;;;4406811;32;20003;-74
2021/01/25 08:51:16;;;;;;;;;;;2.40;96.00;;;;;;4406787;32;20000;-73
2021/01/25 08:53:47;;;;;;;;;;;2.40;96.00;;;;;;4407781;32;20008;-74
2021/01/25 08:56:19;;;;;;;;;;;2.40;96.10;;;;;;4407488;32;20051;-73
2021/01/25 08:58:48;;;;;;;;;;;2.40;96.10;;;;;;4407125;32;28818;-74
2021/01/25 09:01:21;;;;;;;;;;;2.40;96.10;;;;;;4405654;32;29613;-74
2021/01/25 09:03:51;;;;;;;;;;;2.40;96.10;;;;;;4392910;32;38900;-73
2021/01/25 09:06:22;;;;;;;;;;;2.40;96.10;;;;;;4407267;32;20000;-74
2021/01/25 09:08:51;;;;;;;;;;;2.40;96.10;;;;;;4405594;32;33230;-74
2021/01/25 09:11:21;;;;;;;;;;;2.40;96.10;;;;;;4406115;32;27083;-74
2021/01/25 09:13:50;;;;;;;;;;;2.40;96.10;;;;;;4405707;32;20011;-73
2021/01/25 09:16:20;;;;;;;;;;;2.40;96.10;;;;;;4406080;32;20018;-73
2021/01/25 09:18:49;;;;;;;;;;;2.40;96.20;;;;;;4406624;32;20019;-74
2021/01/25 09:21:16;;;;;;;;;;;2.40;96.20;;;;;;4406310;32;27322;-74
2021/01/25 09:23:45;;;;;;;;;;;2.40;96.10;;;;;;4405509;32;25128;-74
2021/01/25 09:26:18;;;;;;;;;;;2.40;96.20;;;;;;4406871;32;20104;-73
2021/01/25 09:28:45;;;;;;;;;;;2.40;96.10;;;;;;4392698;32;32851;-73
2021/01/25 09:31:18;;;;;;;;;;;2.40;96.10;;;;;;4405758;32;20019;-73
2021/01/25 09:33:50;;;;;;;;;;;2.40;96.10;;;;;;4406519;32;31751;-74
2021/01/25 09:36:20;;;;;;;;;;;2.40;96.10;;;;;;4407229;32;20011;-74
2021/01/25 09:39:04;;;;;;;;;;;2.40;96.10;;;;;;4407390;32;20018;-74
2021/01/25 09:41:34;;;;;;;;;;;2.40;96.40;;;;;;4407327;32;20405;-74
2021/01/25 09:44:01;;;;;;;;;;;2.40;96.10;;;;;;4393387;32;20059;-74
2021/01/25 09:46:30;;;;;;;;;;;2.40;96.20;;;;;;4407251;32;20074;-74
2021/01/25 09:48:56;;;;;;;;;;;2.40;96.10;;;;;;4405628;32;20000;-73
2021/01/25 09:51:28;;;;;;;;;;;2.40;96.10;;;;;;4406977;32;20007;-73
2021/01/25 09:53:55;;;;;;;;;;;2.40;96.10;;;;;;4406639;32;20055;-73
2021/01/25 09:56:22;;;;;;;;;;;2.40;96.10;;;;;;4407124;32;20069;-74
2021/01/25 09:58:51;;;;;;;;;;;2.40;96.10;;;;;;4406680;32;20412;-74
2021/01/25 10:01:18;;;;;;;;;;;2.40;96.10;;;;;;4405798;32;20015;-74
2021/01/25 10:03:47;;;;;;;;;;;2.40;96.10;;;;;;4406862;32;20026;-74
2021/01/25 10:06:20;;;;;;;;;;;2.40;96.10;;;;;;4406111;32;20026;-73
2021/01/25 10:08:47;;;;;;;;;;;2.40;96.10;;;;;;4405844;32;19996;-73
2021/01/25 10:11:17;;;;;;;;;;;2.40;96.10;;;;;;4405861;32;20071;-74
2021/01/25 10:13:44;;;;;;;;;;;2.40;96.10;;;;;;4405355;32;20032;-74
2021/01/25 10:16:10;;;;;;;;;;;2.40;96.10;;;;;;4405538;32;20030;-74
2021/01/25 10:18:37;;;;;;;;;;;2.40;96.10;;;;;;4404802;32;26787;-75
2021/01/25 10:21:13;;;;;;;;;;;2.40;96.10;;;;;;4405179;32;20063;-75
2021/01/25 10:23:42;;;;;;;;;;;2.40;96.10;;;;;;4392901;32;20000;-75
2021/01/25 10:26:09;;;;;;;;;;;2.40;96.10;;;;;;4406682;32;20008;-73
2021/01/25 10:28:36;;;;;;;;;;;2.40;96.20;;;;;;4406435;32;20012;-73
2021/01/25 10:31:05;;;;;;;;;;;2.40;96.10;;;;;;4405466;32;20067;-73
2021/01/25 10:33:37;;;;;;;;;;;2.40;96.10;;;;;;4394725;32;20104;-73
2021/01/25 10:36:06;;;;;;;;;;;2.40;96.20;;;;;;4389963;32;20008;-75
2021/01/25 10:38:33;;;;;;;;;;;2.40;96.20;;;;;;4391531;32;20071;-74
2021/01/25 10:41:02;;;;;;;;;;;2.40;96.10;;;;;;4389936;32;20056;-74
2021/01/25 10:43:32;;;;;;;;;;;2.40;96.20;;;;;;4391257;32;20072;-73
2021/01/25 10:45:58;;;;;;;;;;;2.40;96.20;;;;;;4390328;32;20418;-73
2021/01/25 10:48:25;;;;;;;;;;;2.40;96.20;;;;;;4390303;32;20045;-73
2021/01/25 10:50:55;;;;;;;;;;;2.40;96.20;;;;;;4390354;32;20089;-74
2021/01/25 10:53:21;;;;;;;;;;;2.40;96.30;;;;;;4390194;32;20005;-73
2021/01/25 10:55:48;;;;;;;;;;;2.40;96.20;;;;;;4391143;32;20134;-74
2021/01/25 10:58:15;;;;;;;;;;;2.40;96.20;;;;;;4391137;32;20083;-73
2021/01/25 11:00:44;;;;;;;;;;;2.40;96.50;;;;;;4377457;32;20002;-73
2021/01/25 11:03:13;;;;;;;;;;;2.40;96.10;;;;;;4390834;32;20050;-74
2021/01/25 11:05:40;;;;;;;;;;;2.40;96.20;;;;;;4390861;32;20523;-74
2021/01/25 11:08:07;;;;;;;;;;;2.40;96.20;;;;;;4390014;32;19996;-74
2021/01/25 11:10:33;;;;;;;;;;;2.40;96.10;;;;;;4390631;32;20014;-73
2021/01/25 11:13:00;;;;;;;;;;;2.50;96.10;;;;;;4388558;32;37748;-74
2021/01/25 11:15:27;;;;;;;;;;;2.50;96.10;;;;;;4390102;32;31418;-73
2021/01/25 11:17:54;;;;;;;;;;;2.50;96.10;;;;;;4389880;32;28385;-75
2021/01/25 11:20:26;;;;;;;;;;;2.50;96.20;;;;;;4376873;32;20009;-74
2021/01/25 11:22:53;;;;;;;;;;;2.50;96.10;;;;;;4377419;32;20368;-73
2021/01/25 11:25:22;;;;;;;;;;;2.50;96.20;;;;;;4390549;32;20022;-73
2021/01/25 11:27:49;;;;;;;;;;;2.50;96.20;;;;;;4390682;32;20004;-73
2021/01/25 11:30:18;;;;;;;;;;;2.50;96.20;;;;;;4389376;32;25945;-73
2021/01/25 11:32:47;;;;;;;;;;;2.50;96.10;;;;;;4390659;32;20004;-74
2021/01/25 11:35:20;;;;;;;;;;;2.50;96.20;;;;;;4389891;32;20056;-74
2021/01/25 11:37:46;;;;;;;;;;;2.50;96.10;;;;;;4389533;32;20027;-74
2021/01/25 11:40:13;;;;;;;;;;;2.50;96.10;;;;;;4390630;32;20018;-74
2021/01/25 11:42:40;;;;;;;;;;;2.50;96.10;;;;;;4389554;32;20026;-74
2021/01/25 11:45:09;;;;;;;;;;;2.50;96.10;;;;;;4391064;32;20405;-74
2021/01/25 11:47:36;;;;;;;;;;;2.50;96.10;;;;;;4392417;32;20420;-74
2021/01/25 11:50:05;;;;;;;;;;;2.50;96.10;;;;;;4393945;32;20051;-73
2021/01/25 11:52:37;;;;;;;;;;;2.50;96.10;;;;;;4392438;32;20449;-74
2021/01/25 11:55:04;;;;;;;;;;;2.50;96.10;;;;;;4393595;32;20014;-73
2021/01/25 11:57:38;;;;;;;;;;;2.60;96.20;;;;;;4392298;32;20101;-73
2021/01/25 12:00:08;;;;;;;;;;;2.60;96.10;;;;;;4393454;32;20043;-74
2021/01/25 12:02:40;;;;;;;;;;;2.70;96.30;;;;;;4392947;32;20009;-73
2021/01/25 12:05:12;;;;;;;;;;;2.70;96.30;;;;;;4380122;32;20012;-74
2021/01/25 12:07:39;;;;;;;;;;;2.80;96.30;;;;;;4392643;32;20449;-73
2021/01/25 12:10:09;;;;;;;;;;;2.80;96.40;;;;;;4392429;32;20012;-74
2021/01/25 12:12:39;;;;;;;;;;;2.90;96.30;;;;;;4393485;32;20448;-73
2021/01/25 12:15:11;;;;;;;;;;;2.90;96.30;;;;;;4392003;32;20037;-73
2021/01/25 12:17:44;;;;;;;;;;;2.90;96.10;;;;;;4391886;32;20483;-74
2021/01/25 12:20:16;;;;;;;;;;;2.90;96.00;;;;;;4392230;32;20008;-74
2021/01/25 12:22:45;;;;;;;;;;;2.90;96.00;;;;;;4379562;32;20008;-74
2021/01/25 12:25:15;;;;;;;;;;;2.90;96.00;;;;;;4393537;32;19997;-74
2021/01/25 12:27:49;;;;;;;;;;;2.90;95.90;;;;;;4393234;32;20055;-74
2021/01/25 12:30:19;;;;;;;;;;;2.90;95.90;;;;;;4393338;32;20019;-74
2021/01/25 12:32:46;;;;;;;;;;;2.80;95.80;;;;;;4393047;32;20097;-74
2021/01/25 12:35:18;;;;;;;;;;;2.90;95.90;;;;;;4393027;32;20009;-75
2021/01/25 12:37:50;;;;;;;;;;;2.80;95.80;;;;;;4391930;32;20441;-74
2021/01/25 12:40:19;;;;;;;;;;;2.80;95.80;;;;;;4392045;32;20008;-73
2021/01/25 12:42:55;;;;;;;;;;;2.80;95.80;;;;;;4393237;32;20388;-73
2021/01/25 12:45:25;;;;;;;;;;;2.80;95.80;;;;;;4392655;32;20071;-73
2021/01/25 12:47:51;;;;;;;;;;;2.80;95.80;;;;;;4392162;32;20016;-74
2021/01/25 12:50:21;;;;;;;;;;;2.80;95.80;;;;;;4392472;32;20032;-74
2021/01/25 12:52:53;;;;;;;;;;;2.80;95.80;;;;;;4391814;32;20007;-74
2021/01/25 12:55:20;;;;;;;;;;;2.80;95.90;;;;;;4392299;32;20008;-73
2021/01/25 12:57:47;;;;;;;;;;;2.80;95.80;;;;;;4391513;32;20118;-74
2021/01/25 13:00:18;;;;;;;;;;;2.80;95.90;;;;;;4392733;32;20063;-73
2021/01/25 13:02:45;;;;;;;;;;;2.80;95.80;;;;;;4392311;32;20104;-73
2021/01/25 13:05:13;;;;;;;;;;;2.80;95.80;;;;;;4391359;32;20488;-73
2021/01/25 13:07:43;;;;;;;;;;;2.80;95.80;;;;;;4392594;32;20035;-74
2021/01/25 13:10:13;;;;;;;;;;;2.80;95.80;;;;;;4378858;32;20315;-74
2021/01/25 13:12:42;;;;;;;;;;;2.80;95.80;;;;;;4390999;32;20048;-74
2021/01/25 13:15:13;;;;;;;;;;;2.90;96.00;;;;;;4391978;32;20012;-74
2021/01/25 13:17:41;;;;;;;;;;;2.90;96.10;;;;;;4392594;32;20064;-73
2021/01/25 13:20:13;;;;;;;;;;;3.00;96.00;;;;;;4392820;32;20004;-73
2021/01/25 13:22:40;;;;;;;;;;;3.00;95.80;;;;;;4391982;32;20063;-74
2021/01/25 13:25:09;;;;;;;;;;;3.00;95.80;;;;;;4391201;32;20425;-74
2021/01/25 13:27:39;;;;;;;;;;;3.00;95.80;;;;;;4392131;32;20086;-73
2021/01/25 13:30:06;;;;;;;;;;;3.00;95.80;;;;;;4391838;32;20012;-74
2021/01/25 13:32:36;;;;;;;;;;;3.10;95.70;;;;;;4391212;32;20532;-74
2021/01/25 13:35:04;;;;;;;;;;;3.10;95.60;;;;;;4392259;32;20008;-73
2021/01/25 13:37:32;;;;;;;;;;;3.10;95.50;;;;;;4391720;32;20517;-74
2021/01/25 13:39:59;;;;;;;;;;;3.00;95.50;;;;;;4390683;32;20024;-73
2021/01/25 13:42:37;;;;;;;;;;;3.10;95.50;;;;;;4390775;32;20420;-73
2021/01/25 13:45:07;;;;;;;;;;;3.00;95.50;;;;;;4392316;32;20004;-73
2021/01/25 13:47:39;;;;;;;;;;;3.10;95.50;;;;;;4378229;32;20086;-73
2021/01/25 13:50:14;;;;;;;;;;;3.10;95.50;;;;;;4392138;32;20056;-73
2021/01/25 13:52:43;;;;;;;;;;;3.00;95.50;;;;;;4391213;32;30601;-74
2021/01/25 13:55:10;;;;;;;;;;;3.00;95.50;;;;;;4391063;32;37852;-73
2021/01/25 13:57:36;;;;;;;;;;;3.00;95.50;;;;;;4390320;32;20024;-74
2021/01/25 14:00:23;;;;;;;;;;;3.00;95.50;;;;;;4391006;32;20028;-73
2021/01/25 14:02:50;;;;;;;;;;;3.00;95.60;;;;;;4389580;32;27845;-73
2021/01/25 14:05:17;;;;;;;;;;;3.00;95.50;;;;;;4391010;32;29647;-74
2021/01/25 14:07:44;;;;;;;;;;;3.00;95.50;;;;;;4390404;32;34803;-73
2021/01/25 14:10:11;;;;;;;;;;;3.00;95.50;;;;;;4390127;32;35365;-73
2021/01/25 14:12:40;;;;;;;;;;;3.00;95.60;;;;;;4389282;32;42824;-73
2021/01/25 14:15:10;;;;;;;;;;;3.00;95.60;;;;;;4390888;32;29937;-74
2021/01/25 14:17:39;;;;;;;;;;;3.00;95.60;;;;;;4390597;32;21927;-74
2021/01/25 14:20:07;;;;;;;;;;;3.00;95.60;;;;;;4389921;32;24131;-74
2021/01/25 14:22:34;;;;;;;;;;;3.00;95.60;;;;;;4390523;32;20043;-73
2021/01/25 14:25:07;;;;;;;;;;;3.00;95.50;;;;;;4389406;32;24080;-74
2021/01/25 14:27:41;;;;;;;;;;;3.00;95.50;;;;;;4389879;32;23098;-74
2021/01/25 14:30:16;;;;;;;;;;;3.00;95.50;;;;;;4389636;32;32268;-73
2021/01/25 14:32:43;;;;;;;;;;;3.00;95.50;;;;;;4376691;32;30315;-74
2021/01/25 14:35:10;;;;;;;;;;;3.00;95.60;;;;;;4389803;32;20012;-73
2021/01/25 14:37:39;;;;;;;;;;;3.00;95.60;;;;;;4391544;32;20022;-74
2021/01/25 14:40:14;;;;;;;;;;;2.90;95.50;;;;;;4391001;32;20014;-74
2021/01/25 14:42:45;;;;;;;;;;;3.00;95.50;;;;;;4377246;32;20011;-74